Time;durP1;ratioP1;P1;durP2;ratioP2;P2;SDS_P1;SDS_P2;PMS_P1;PMS_P2;Temp;Humidity;BMP_temperature;BMP_pressure;BME280_temperature;BME280_humidity;BME280_pressure;Samples;Min_cycle;Max_cycle;Signal;HPM_P1;HPM_P2
2022/05/21 00:01:53;;;;;;;3.38;2.30;;;18.60;92.40;;;;;;5073223;28;20032;-62
2022/05/21 00:04:19;;;;;;;2.53;1.80;;;18.50;92.70;;;;;;5073069;28;20072;-62
2022/05/21 00:06:45;;;;;;;2.63;2.40;;;18.50;92.50;;;;;;5073099;28;20021;-62
2022/05/21 00:09:11;;;;;;;3.08;2.55;;;18.50;92.40;;;;;;5073115;28;20025;-62
2022/05/21 00:11:38;;;;;;;4.28;2.85;;;18.60;92.40;;;;;;5072878;28;20024;-61
2022/05/21 00:14:04;;;;;;;2.80;2.40;;;18.50;92.40;;;;;;5073088;28;20107;-61
2022/05/21 00:16:31;;;;;;;2.70;2.30;;;18.50;92.70;;;;;;5073252;28;20043;-62
2022/05/21 00:18:56;;;;;;;2.42;2.05;;;18.40;92.80;;;;;;5072703;28;20028;-61
2022/05/21 00:21:23;;;;;;;2.78;2.10;;;18.40;92.80;;;;;;5073251;28;20024;-62
2022/05/21 00:23:50;;;;;;;3.47;2.30;;;18.40;92.70;;;;;;5072918;28;20386;-62
2022/05/21 00:26:16;;;;;;;3.95;2.35;;;18.40;93.00;;;;;;5073122;28;20064;-62
2022/05/21 00:28:44;;;;;;;5.35;2.10;;;18.40;93.50;;;;;;5072802;28;20032;-62
2022/05/21 00:31:13;;;;;;;2.60;2.00;;;18.30;94.30;;;;;;5072792;28;20061;-61
2022/05/21 00:33:39;;;;;;;2.38;1.88;;;18.20;94.80;;;;;;5072894;28;20049;-62
2022/05/21 00:36:07;;;;;;;2.50;2.08;;;18.10;95.70;;;;;;5072698;28;20107;-62
2022/05/21 00:38:34;;;;;;;2.22;2.03;;;18.10;95.40;;;;;;5072859;28;20103;-61
2022/05/21 00:41:01;;;;;;;3.13;2.22;;;18.10;95.50;;;;;;5072715;28;20020;-61
2022/05/21 00:43:34;;;;;;;2.25;1.77;;;18.10;95.70;;;;;;5072651;28;20107;-61
2022/05/21 00:46:00;;;;;;;;;;;18.00;96.60;;;;;;5073186;28;20099;-62
2022/05/21 00:48:26;;;;;;;2.30;1.75;;;18.00;96.70;;;;;;5072674;28;19999;-62
2022/05/21 00:50:53;;;;;;;6.25;2.03;;;17.90;96.70;;;;;;5072909;28;20086;-62
2022/05/21 00:53:20;;;;;;;2.65;1.60;;;17.90;96.80;;;;;;5072889;28;20028;-62
2022/05/21 00:55:46;;;;;;;1.95;1.60;;;17.90;96.40;;;;;;5072613;28;20486;-62
2022/05/21 01:01:01;;;;;;;4.05;2.13;;;17.90;96.40;;;;;;5072581;28;20056;-61
2022/05/21 01:03:29;;;;;;;2.92;2.20;;;17.80;97.50;;;;;;5072296;28;20523;-62
2022/05/21 01:05:57;;;;;;;2.47;2.08;;;17.70;97.90;;;;;;5072559;28;20456;-62
2022/05/21 01:08:22;;;;;;;2.53;1.60;;;17.60;98.20;;;;;;5075732;28;20145;-61
2022/05/21 01:10:54;;;;;;;2.10;1.65;;;17.60;98.50;;;;;;5075958;28;20078;-61
2022/05/21 01:13:23;;;;;;;2.70;1.77;;;17.60;98.40;;;;;;5075996;28;20512;-62
2022/05/21 01:15:53;;;;;;;1.40;1.30;;;17.60;98.40;;;;;;5075821;28;20473;-62
2022/05/21 01:18:19;;;;;;;2.15;1.50;;;17.60;99.00;;;;;;5075998;28;20039;-62
2022/05/21 01:20:57;;;;;;;1.65;1.40;;;17.60;98.40;;;;;;5076189;28;20025;-62
2022/05/21 01:23:23;;;;;;;2.28;1.80;;;17.60;98.30;;;;;;5075639;28;20017;-61
2022/05/21 01:25:50;;;;;;;2.10;1.80;;;17.60;98.20;;;;;;5075741;28;20032;-62
2022/05/21 01:28:20;;;;;;;2.15;1.60;;;17.60;98.60;;;;;;5075814;28;20036;-62
2022/05/21 01:30:50;;;;;;;2.72;1.83;;;17.50;98.70;;;;;;5075839;28;20037;-62
2022/05/21 01:33:18;;;;;;;2.35;1.58;;;17.50;98.90;;;;;;5075761;28;20074;-61
2022/05/21 01:35:45;;;;;;;2.13;1.63;;;17.50;99.10;;;;;;5075563;28;20037;-61
2022/05/21 01:38:14;;;;;;;3.40;1.63;;;17.50;98.80;;;;;;5075514;28;20017;-62
2022/05/21 01:40:41;;;;;;;1.63;1.50;;;17.50;99.00;;;;;;5075466;28;20025;-62
2022/05/21 01:45:52;;;;;;;3.08;1.88;;;17.50;98.00;;;;;;5075526;28;20027;-61
2022/05/21 01:48:23;;;;;;;2.28;1.60;;;17.40;97.80;;;;;;5075647;28;20103;-62
2022/05/21 01:50:50;;;;;;;2.45;1.58;;;17.40;98.40;;;;;;5075339;28;20364;-62
2022/05/21 01:53:17;;;;;;;2.25;1.75;;;17.30;98.60;;;;;;5075327;28;20094;-62
2022/05/21 01:55:44;;;;;;;3.20;1.80;;;17.20;98.50;;;;;;5075167;28;20036;-61
2022/05/21 01:58:10;;;;;;;2.53;1.70;;;17.20;98.50;;;;;;5074863;28;20049;-61
2022/05/21 02:00:36;;;;;;;1.80;1.70;;;17.20;98.00;;;;;;5074913;28;20042;-62
2022/05/21 02:03:01;;;;;;;3.45;2.10;;;17.20;98.00;;;;;;5075097;28;20040;-62
2022/05/21 02:05:27;;;;;;;2.97;2.00;;;17.20;98.00;;;;;;5074924;28;20032;-62
2022/05/21 02:07:53;;;;;;;3.63;2.25;;;17.20;98.60;;;;;;5075208;28;20035;-62
2022/05/21 02:10:19;;;;;;;1.90;1.58;;;17.10;99.30;;;;;;5075023;28;20028;-62
2022/05/21 02:12:44;;;;;;;1.95;1.73;;;17.10;99.80;;;;;;5074869;28;20021;-61
2022/05/21 02:15:11;;;;;;;2.05;1.70;;;17.10;99.60;;;;;;5074809;28;20386;-62
2022/05/21 02:17:36;;;;;;;2.65;1.80;;;17.10;99.20;;;;;;5074761;28;20048;-61
2022/05/21 02:20:04;;;;;;;2.30;1.80;;;17.10;99.50;;;;;;5074670;28;20493;-62
2022/05/21 02:22:30;;;;;;;2.42;1.73;;;17.00;99.90;;;;;;5074877;28;20017;-61
2022/05/21 02:24:55;;;;;;;2.28;1.90;;;17.00;99.90;;;;;;5074909;28;20021;-62
2022/05/21 02:27:21;;;;;;;3.22;2.00;;;16.90;99.90;;;;;;5074453;28;20434;-62
2022/05/21 02:29:47;;;;;;;2.47;2.25;;;16.90;99.90;;;;;;5074385;28;20599;-62
2022/05/21 02:32:14;;;;;;;4.20;2.30;;;16.80;99.90;;;;;;5074437;28;20070;-61
2022/05/21 02:34:41;;;;;;;3.88;2.10;;;16.60;99.90;;;;;;5074332;28;20108;-62
2022/05/21 02:39:52;;;;;;;2.50;2.10;;;16.70;99.90;;;;;;5074438;28;20027;-61
2022/05/21 02:45:03;;;;;;;2.40;2.20;;;16.70;99.90;;;;;;5074440;28;20035;-61
2022/05/21 02:47:29;;;;;;;2.50;2.00;;;16.50;99.90;;;;;;5074104;28;20021;-61
2022/05/21 02:49:55;;;;;;;2.03;1.88;;;16.60;99.90;;;;;;5074093;28;20028;-61
2022/05/21 02:52:21;;;;;;;2.10;1.88;;;16.50;99.90;;;;;;5074028;28;20027;-62
2022/05/21 02:54:47;;;;;;;2.72;2.28;;;16.60;99.90;;;;;;5073895;28;20031;-62
2022/05/21 02:57:12;;;;;;;2.28;1.73;;;16.50;99.90;;;;;;5073963;28;20031;-61
2022/05/21 02:59:39;;;;;;;2.33;2.13;;;16.50;99.90;;;;;;5073626;28;20052;-61
2022/05/21 03:02:06;;;;;;;2.80;2.08;;;16.50;99.90;;;;;;5073918;28;20073;-62
2022/05/21 03:04:32;;;;;;;1.70;1.60;;;16.40;99.90;;;;;;5074152;28;20101;-62
2022/05/21 03:06:58;;;;;;;3.63;2.22;;;16.40;99.90;;;;;;5073795;28;20514;-62
2022/05/21 03:12:09;;;;;;;2.30;1.90;;;16.40;99.90;;;;;;5074138;28;20468;-62
2022/05/21 03:14:36;;;;;;;2.88;2.53;;;16.40;99.90;;;;;;5073369;28;20029;-62
2022/05/21 03:17:02;;;;;;;3.28;2.42;;;16.40;99.90;;;;;;5073630;28;20035;-62
2022/05/21 03:19:29;;;;;;;2.78;2.47;;;16.30;99.90;;;;;;5073640;28;20020;-62
2022/05/21 03:21:56;;;;;;;2.78;2.10;;;16.20;99.90;;;;;;5073700;28;20521;-62
2022/05/21 03:24:22;;;;;;;2.38;1.90;;;16.10;99.90;;;;;;5073660;28;20039;-61
2022/05/21 03:26:48;;;;;;;2.22;2.03;;;16.20;99.90;;;;;;5073506;28;20016;-61
2022/05/21 03:29:14;;;;;;;1.77;1.58;;;16.20;99.90;;;;;;5072886;28;20151;-61
2022/05/21 03:31:40;;;;;;;2.42;1.70;;;16.20;99.90;;;;;;5073531;28;20510;-61
2022/05/21 03:34:06;;;;;;;2.88;2.25;;;16.10;99.90;;;;;;5073654;28;20462;-61
2022/05/21 03:36:32;;;;;;;3.53;2.38;;;16.20;99.90;;;;;;5073689;28;20138;-62
2022/05/21 03:38:59;;;;;;;2.45;2.10;;;16.20;99.90;;;;;;5073265;28;20020;-62
2022/05/21 03:41:26;;;;;;;3.30;2.28;;;16.20;99.90;;;;;;5073178;28;20106;-61
2022/05/21 03:43:52;;;;;;;2.00;1.80;;;16.20;99.90;;;;;;5073405;28;20055;-61
2022/05/21 03:46:19;;;;;;;1.98;1.75;;;16.10;99.90;;;;;;5073161;28;20108;-61
2022/05/21 03:48:45;;;;;;;2.38;1.88;;;16.10;99.90;;;;;;5073428;28;20544;-62
2022/05/21 03:51:11;;;;;;;3.83;1.80;;;16.10;99.90;;;;;;5073320;28;20542;-61
2022/05/21 03:53:37;;;;;;;4.28;2.53;;;16.20;99.90;;;;;;5073225;28;20096;-62
2022/05/21 03:56:04;;;;;;;2.20;1.90;;;16.10;99.90;;;;;;5073002;28;20067;-61
2022/05/21 03:58:30;;;;;;;2.80;2.30;;;16.00;99.90;;;;;;5072741;28;20049;-62
2022/05/21 04:00:55;;;;;;;3.70;2.67;;;16.00;99.90;;;;;;5073095;28;20048;-61
2022/05/21 04:03:21;;;;;;;3.88;2.05;;;16.00;99.90;;;;;;5073066;28;20052;-62
2022/05/21 04:05:47;;;;;;;2.30;2.00;;;16.00;99.90;;;;;;5073076;28;20084;-62
2022/05/21 04:08:15;;;;;;;3.40;2.70;;;16.10;99.90;;;;;;5073063;28;20075;-61
2022/05/21 04:10:41;;;;;;;4.28;2.67;;;16.10;99.90;;;;;;5072994;28;20021;-61
2022/05/21 04:13:07;;;;;;;5.32;2.90;;;16.00;99.90;;;;;;5072731;28;20017;-62
2022/05/21 04:15:34;;;;;;;3.47;3.03;;;16.00;99.90;;;;;;5072954;28;20043;-62
2022/05/21 04:18:00;;;;;;;3.70;2.30;;;16.00;99.90;;;;;;5072872;28;20056;-61
2022/05/21 04:20:27;;;;;;;3.33;2.50;;;16.10;99.90;;;;;;5072991;28;20087;-61
2022/05/21 04:22:53;;;;;;;3.47;2.17;;;16.20;99.90;;;;;;5072888;28;20158;-61
2022/05/21 04:25:19;;;;;;;3.35;2.95;;;16.30;99.90;;;;;;5072569;28;20104;-62
2022/05/21 04:27:45;;;;;;;4.43;3.33;;;16.40;99.90;;;;;;5073014;28;20020;-61
2022/05/21 04:30:26;;;;;;;4.35;3.60;;;16.50;99.90;;;;;;5072850;28;20021;-62
2022/05/21 04:32:53;;;;;;;4.88;3.80;;;16.60;99.90;;;;;;5072760;28;20035;-62
2022/05/21 04:35:19;;;;;;;3.10;2.80;;;16.50;99.90;;;;;;5072826;28;20104;-61
2022/05/21 04:37:46;;;;;;;3.45;3.15;;;16.50;99.90;;;;;;5073070;28;20040;-62
2022/05/21 04:40:16;;;;;;;4.35;2.90;;;16.60;99.90;;;;;;5072562;28;20055;-61
2022/05/21 04:42:42;;;;;;;3.85;2.60;;;16.80;99.90;;;;;;5075315;28;20360;-61
2022/05/21 04:45:09;;;;;;;2.88;2.53;;;16.80;99.90;;;;;;5076595;28;20032;-62
2022/05/21 04:47:35;;;;;;;20.55;10.48;;;16.90;99.90;;;;;;5076397;28;20017;-61
2022/05/21 04:50:01;;;;;;;17.70;8.48;;;16.90;99.90;;;;;;5076447;28;20561;-62
2022/05/21 04:52:27;;;;;;;12.90;6.53;;;16.90;99.90;;;;;;5076648;28;20024;-62
2022/05/21 04:54:53;;;;;;;14.57;7.50;;;16.90;99.90;;;;;;5076005;28;20032;-62
2022/05/21 04:57:18;;;;;;;20.15;10.00;;;17.00;99.90;;;;;;5076452;28;20035;-62
2022/05/21 04:59:46;;;;;;;16.92;8.13;;;17.00;99.90;;;;;;5076075;28;20102;-61
2022/05/21 05:02:12;;;;;;;16.58;8.00;;;16.90;99.90;;;;;;5076173;28;20111;-62
2022/05/21 05:04:38;;;;;;;13.88;7.47;;;16.90;99.90;;;;;;5076136;28;20028;-62
2022/05/21 05:07:08;;;;;;;9.60;5.85;;;16.90;99.90;;;;;;5076064;28;20028;-61
2022/05/21 05:09:43;;;;;;;8.65;5.30;;;17.00;99.90;;;;;;5075862;28;20024;-62
2022/05/21 05:12:09;;;;;;;7.82;4.75;;;17.10;99.90;;;;;;5076063;28;20020;-62
2022/05/21 05:14:38;;;;;;;4.93;3.50;;;17.30;99.90;;;;;;5076007;28;20037;-61
2022/05/21 05:17:05;;;;;;;8.75;4.22;;;17.40;99.90;;;;;;5076171;28;20394;-61
2022/05/21 05:19:31;;;;;;;4.93;3.92;;;17.60;99.90;;;;;;5075967;28;20058;-62
2022/05/21 05:21:57;;;;;;;6.45;3.70;;;17.70;99.90;;;;;;5075901;28;20056;-61
2022/05/21 05:24:23;;;;;;;4.60;3.38;;;17.70;99.90;;;;;;5075743;28;20052;-62
2022/05/21 05:26:49;;;;;;;5.75;3.20;;;17.80;99.90;;;;;;5075806;28;20021;-62
2022/05/21 05:29:15;;;;;;;5.20;3.83;;;17.90;99.90;;;;;;5076044;28;20494;-62
2022/05/21 05:31:41;;;;;;;5.72;3.58;;;18.00;99.90;;;;;;5075595;28;20474;-61
2022/05/21 05:34:07;;;;;;;11.65;5.20;;;18.00;99.90;;;;;;5075645;28;20025;-62
2022/05/21 05:36:32;;;;;;;5.60;3.80;;;18.00;99.90;;;;;;5075657;28;20461;-62
2022/05/21 05:38:59;;;;;;;5.20;3.35;;;18.00;99.90;;;;;;5075361;28;20141;-62
2022/05/21 05:41:26;;;;;;;3.47;2.72;;;18.20;99.90;;;;;;5075483;28;20029;-62
2022/05/21 05:43:53;;;;;;;3.20;2.90;;;18.30;99.90;;;;;;5075478;28;20025;-62
2022/05/21 05:46:19;;;;;;;4.15;2.75;;;18.50;99.90;;;;;;5075374;28;20493;-62
2022/05/21 05:48:44;;;;;;;3.13;2.65;;;18.60;99.80;;;;;;5075536;28;20024;-62
2022/05/21 05:51:10;;;;;;;4.90;3.63;;;18.80;99.40;;;;;;5075287;28;20085;-62
2022/05/21 05:53:36;;;;;;;3.40;2.83;;;18.90;99.90;;;;;;5074663;28;20052;-62
2022/05/21 05:56:02;;;;;;;6.43;3.10;;;19.00;99.20;;;;;;5075666;28;20463;-62
2022/05/21 06:01:12;;;;;;;3.60;3.00;;;19.20;99.40;;;;;;5075165;28;20437;-62
2022/05/21 06:03:37;;;;;;;4.82;3.42;;;19.30;99.00;;;;;;5075230;28;20020;-62
2022/05/21 06:06:04;;;;;;;3.20;2.85;;;19.50;99.10;;;;;;5075257;28;20020;-62
2022/05/21 06:08:30;;;;;;;3.70;3.28;;;19.50;98.80;;;;;;5074721;28;20021;-62
2022/05/21 06:10:56;;;;;;;3.60;2.67;;;19.60;98.60;;;;;;5075106;28;20085;-62
2022/05/21 06:13:21;;;;;;;3.17;2.58;;;19.80;98.40;;;;;;5074984;28;20020;-62
2022/05/21 06:15:48;;;;;;;5.68;3.83;;;20.00;97.60;;;;;;5074687;28;20033;-62
2022/05/21 06:18:22;;;;;;;4.68;2.92;;;20.20;96.70;;;;;;5074910;28;20150;-62
2022/05/21 06:20:50;;;;;;;4.82;3.30;;;20.30;96.60;;;;;;5074841;28;20016;-62
2022/05/21 06:23:16;;;;;;;4.25;3.25;;;20.40;95.90;;;;;;5074606;28;20029;-62
2022/05/21 06:25:42;;;;;;;5.75;3.97;;;20.60;94.70;;;;;;5074929;28;20394;-62
2022/05/21 06:28:07;;;;;;;4.43;3.47;;;20.80;94.30;;;;;;5074631;28;20016;-62
2022/05/21 06:30:35;;;;;;;6.55;3.60;;;20.90;93.60;;;;;;5074479;28;20027;-62
2022/05/21 06:33:11;;;;;;;4.82;3.70;;;21.00;93.60;;;;;;5074528;28;20020;-62
2022/05/21 06:35:37;;;;;;;4.32;3.60;;;21.20;94.60;;;;;;5074594;28;20056;-62
2022/05/21 06:38:04;;;;;;;3.70;2.90;;;21.30;95.30;;;;;;5074132;28;20110;-62
2022/05/21 06:40:29;;;;;;;3.78;3.13;;;21.50;93.10;;;;;;5074453;28;20515;-62
2022/05/21 06:43:00;;;;;;;5.20;3.00;;;21.70;91.20;;;;;;5074396;28;20078;-62
2022/05/21 06:45:32;;;;;;;7.22;2.88;;;21.80;89.10;;;;;;5074140;28;20090;-62
2022/05/21 06:48:04;;;;;;;4.90;2.92;;;22.00;90.00;;;;;;5074171;28;20021;-62
2022/05/21 06:50:30;;;;;;;3.95;2.97;;;22.20;85.80;;;;;;5073865;28;20456;-62
2022/05/21 06:52:56;;;;;;;4.30;2.60;;;22.50;87.70;;;;;;5074264;28;20020;-62
2022/05/21 06:55:22;;;;;;;5.50;3.05;;;22.60;83.40;;;;;;5074280;28;20111;-62
2022/05/21 06:57:49;;;;;;;4.03;2.45;;;22.80;79.50;;;;;;5073969;28;20029;-62
2022/05/21 07:00:16;;;;;;;2.72;2.22;;;23.00;78.50;;;;;;5073993;28;20541;-63
2022/05/21 07:02:44;;;;;;;4.88;2.50;;;23.20;77.60;;;;;;5073879;28;20044;-62
2022/05/21 07:07:55;;;;;;;4.93;2.17;;;23.50;73.10;;;;;;5074251;28;20066;-62
2022/05/21 07:10:23;;;;;;;4.45;2.47;;;23.60;74.50;;;;;;5074099;28;20020;-62
2022/05/21 07:12:49;;;;;;;2.88;2.45;;;23.80;71.10;;;;;;5073663;28;20021;-62
2022/05/21 07:15:16;;;;;;;4.07;2.38;;;24.10;70.60;;;;;;5073647;28;20035;-62
2022/05/21 07:17:44;;;;;;;3.15;2.60;;;24.30;70.00;;;;;;5073713;28;20017;-62
2022/05/21 07:20:15;;;;;;;4.72;2.67;;;25.30;69.00;;;;;;5073376;28;20100;-62
2022/05/21 07:22:45;;;;;;;5.00;2.60;;;27.80;62.70;;;;;;5073459;28;20032;-62
2022/05/21 07:25:13;;;;;;;4.15;2.80;;;30.20;55.70;;;;;;5073546;28;20028;-62
2022/05/21 07:27:40;;;;;;;3.53;2.63;;;31.80;52.50;;;;;;5073656;28;20021;-62
2022/05/21 07:30:07;;;;;;;3.22;2.40;;;33.10;49.60;;;;;;5073565;28;20063;-62
2022/05/21 07:32:33;;;;;;;2.92;2.35;;;34.10;47.00;;;;;;5073565;28;20447;-62
2022/05/21 07:35:05;;;;;;;4.25;2.40;;;35.10;46.70;;;;;;5073424;28;20036;-62
2022/05/21 07:37:31;;;;;;;3.15;2.75;;;36.00;43.90;;;;;;5073457;28;20420;-62
2022/05/21 07:39:57;;;;;;;3.53;2.30;;;36.60;42.40;;;;;;5073296;28;20059;-62
2022/05/21 07:42:22;;;;;;;2.35;2.15;;;37.30;41.90;;;;;;5073291;28;20040;-62
2022/05/21 07:44:49;;;;;;;2.10;1.85;;;37.90;42.70;;;;;;5073396;28;20020;-62
2022/05/21 07:47:14;;;;;;;2.40;2.20;;;38.20;40.30;;;;;;5073317;28;20553;-62
2022/05/21 07:49:40;;;;;;;4.68;2.78;;;38.60;39.90;;;;;;5073002;28;20048;-62
2022/05/21 07:52:07;;;;;;;3.63;2.42;;;38.50;37.90;;;;;;5073271;28;20105;-62
2022/05/21 07:54:33;;;;;;;5.30;3.05;;;38.40;37.10;;;;;;5073186;28;20056;-63
2022/05/21 07:57:01;;;;;;;4.28;2.40;;;38.40;39.00;;;;;;5073115;28;20067;-62
2022/05/21 07:59:27;;;;;;;5.00;3.05;;;38.10;37.60;;;;;;5073053;28;20049;-62
2022/05/21 08:01:53;;;;;;;2.97;2.53;;;37.70;37.80;;;;;;5073200;28;20025;-62
2022/05/21 08:04:19;;;;;;;3.17;2.50;;;37.50;37.00;;;;;;5072792;28;20498;-62
2022/05/21 08:06:45;;;;;;;4.97;2.75;;;37.50;38.50;;;;;;5073107;28;20021;-62
2022/05/21 08:09:11;;;;;;;4.22;2.95;;;37.30;38.70;;;;;;5073157;28;20032;-62
2022/05/21 08:11:37;;;;;;;5.05;2.92;;;37.00;37.40;;;;;;5073008;28;20021;-62
2022/05/21 08:14:04;;;;;;;4.03;2.75;;;36.90;37.70;;;;;;5072935;28;20139;-62
2022/05/21 08:16:30;;;;;;;5.20;2.70;;;37.40;38.20;;;;;;5075255;28;20082;-63
2022/05/21 08:18:56;;;;;;;3.80;2.90;;;37.30;37.70;;;;;;5076853;28;20019;-62
2022/05/21 08:21:22;;;;;;;2.58;2.38;;;37.20;37.60;;;;;;5077162;28;20078;-62
2022/05/21 08:29:16;;;;;;;2.95;2.45;;;38.10;37.90;;;;;;5077096;28;20109;-62
2022/05/21 08:31:42;;;;;;;3.20;2.30;;;37.80;37.00;;;;;;5076610;28;20048;-63
2022/05/21 08:34:08;;;;;;;4.43;2.72;;;38.00;37.50;;;;;;5076804;28;20021;-62
2022/05/21 08:36:34;;;;;;;3.38;2.97;;;37.60;37.60;;;;;;5076708;28;20043;-62
2022/05/21 08:38:59;;;;;;;3.30;2.42;;;37.30;38.60;;;;;;5076602;28;20020;-62
2022/05/21 08:41:29;;;;;;;4.47;2.65;;;37.50;39.80;;;;;;5076608;28;20020;-63
2022/05/21 08:43:55;;;;;;;4.35;2.60;;;37.90;40.20;;;;;;5076644;28;20025;-63
2022/05/21 08:46:47;;;;;;;2.90;2.65;;;37.90;39.00;;;;;;5076278;28;20031;-63
2022/05/21 08:49:33;;;;;;;3.60;3.00;;;37.40;39.80;;;;;;5076609;28;20016;-62
2022/05/21 08:52:21;;;;;;;3.80;3.20;;;37.00;39.60;;;;;;5076803;28;20028;-63
2022/05/21 08:54:48;;;;;;;5.07;3.20;;;36.50;40.50;;;;;;5076490;28;20394;-63
2022/05/21 08:57:39;;;;;;;4.93;2.95;;;36.90;40.40;;;;;;5076691;28;20024;-63
2022/05/21 09:00:15;;;;;;;6.05;3.65;;;36.80;40.90;;;;;;5076235;28;20491;-62
2022/05/21 09:02:41;;;;;;;4.40;3.28;;;37.00;40.80;;;;;;5075815;28;20123;-63
2022/05/21 09:05:12;;;;;;;4.45;2.70;;;37.10;40.90;;;;;;5076284;28;20109;-63
2022/05/21 09:08:13;;;;;;;3.10;2.85;;;37.50;41.10;;;;;;5076312;28;20020;-62
2022/05/21 09:11:03;;;;;;;4.28;2.97;;;37.70;41.60;;;;;;5076055;28;20021;-62
2022/05/21 09:13:58;;;;;;;5.28;2.85;;;37.70;40.50;;;;;;5076302;28;20383;-63
2022/05/21 09:19:08;;;;;;;3.22;2.92;;;37.70;40.20;;;;;;5076199;28;20031;-63
2022/05/21 09:21:41;;;;;;;2.60;2.35;;;37.20;39.90;;;;;;5075890;28;20024;-62
2022/05/21 09:24:08;;;;;;;3.58;2.70;;;37.20;42.10;;;;;;5076015;28;20107;-63
2022/05/21 09:26:47;;;;;;;2.83;2.38;;;37.40;41.20;;;;;;5075833;28;20025;-63
2022/05/21 09:29:18;;;;;;;3.47;2.20;;;37.80;41.50;;;;;;5075133;28;20048;-62
2022/05/21 09:31:44;;;;;;;2.50;2.30;;;37.10;41.50;;;;;;5075512;28;20023;-63
2022/05/21 09:34:24;;;;;;;2.80;2.30;;;36.50;42.00;;;;;;5075684;28;20020;-62
2022/05/21 09:36:50;;;;;;;2.90;1.90;;;36.20;42.20;;;;;;5075618;28;20028;-63
2022/05/21 09:39:38;;;;;;;2.13;1.90;;;36.40;41.40;;;;;;5075715;28;20020;-63
2022/05/21 09:45:22;;;;;;;2.58;2.10;;;37.20;42.20;;;;;;5075657;28;20039;-63
2022/05/21 09:47:53;;;;;;;3.75;1.98;;;37.30;41.80;;;;;;5075444;28;20387;-63
2022/05/21 09:50:28;;;;;;;3.45;2.28;;;37.40;41.60;;;;;;5075422;28;20378;-63
2022/05/21 09:52:54;;;;;;;2.88;2.10;;;37.10;41.70;;;;;;5075362;28;20529;-63
2022/05/21 09:55:27;;;;;;;4.65;2.50;;;37.20;42.20;;;;;;5075414;28;20056;-63
2022/05/21 09:57:54;;;;;;;4.10;2.38;;;36.60;42.80;;;;;;5075139;28;20036;-63
2022/05/21 10:00:28;;;;;;;3.22;2.08;;;36.60;43.00;;;;;;5074989;28;20033;-63
2022/05/21 10:03:00;;;;;;;3.45;2.00;;;36.50;43.80;;;;;;5075476;28;20028;-63
2022/05/21 10:05:44;;;;;;;2.72;1.95;;;36.10;44.50;;;;;;5075050;28;20186;-62
2022/05/21 10:11:36;;;;;;;2.78;2.17;;;36.30;44.20;;;;;;5075289;28;20027;-63
2022/05/21 10:14:04;;;;;;;2.20;1.98;;;37.00;42.90;;;;;;5074093;28;20089;-63
2022/05/21 10:16:46;;;;;;;1.50;1.40;;;37.10;42.20;;;;;;5056859;28;20376;-62
2022/05/21 10:19:15;;;;;;;1.80;1.70;;;37.40;42.60;;;;;;5075092;28;20028;-63
2022/05/21 10:21:58;;;;;;;2.10;1.90;;;37.50;43.10;;;;;;5074732;28;20021;-63
2022/05/21 10:24:48;;;;;;;2.53;2.05;;;37.60;43.10;;;;;;5074556;28;20017;-63
2022/05/21 10:27:42;;;;;;;3.05;1.85;;;37.80;41.70;;;;;;5074643;28;20043;-63
2022/05/21 10:30:57;;;;;;;3.40;2.00;;;37.80;40.80;;;;;;5074596;28;20082;-63
2022/05/21 10:34:03;;;;;;;4.85;1.83;;;37.70;42.50;;;;;;4973932;28;20054;-62
2022/05/21 10:36:49;;;;;;;2.03;1.80;;;37.60;40.70;;;;;;4944847;28;20043;-63
2022/05/21 10:39:33;;;;;;;2.40;1.88;;;37.70;41.00;;;;;;5070528;28;20059;-63
2022/05/21 10:42:04;;;;;;;2.33;2.00;;;37.50;42.70;;;;;;5074627;28;20556;-63
2022/05/21 10:44:57;;;;;;;2.53;2.00;;;37.30;41.00;;;;;;5074174;28;20030;-63
2022/05/21 10:47:43;;;;;;;2.50;2.03;;;37.30;42.30;;;;;;5074246;28;20067;-63
2022/05/21 10:50:40;;;;;;;2.55;1.73;;;37.00;42.90;;;;;;5074240;28;20097;-62
2022/05/21 10:53:38;;;;;;;4.10;1.80;;;37.10;41.60;;;;;;5074208;28;20040;-63
2022/05/21 10:56:22;;;;;;;4.85;1.90;;;37.50;41.90;;;;;;5074152;28;20466;-63
2022/05/21 10:58:51;;;;;;;2.55;1.95;;;37.40;40.90;;;;;;5073864;28;20045;-63
2022/05/21 11:01:44;;;;;;;1.80;1.70;;;37.40;43.40;;;;;;5074165;28;20035;-63
2022/05/21 11:04:42;;;;;;;2.58;1.77;;;37.70;43.30;;;;;;5073897;28;20531;-62
2022/05/21 11:07:23;;;;;;;1.52;1.42;;;37.70;42.50;;;;;;5073854;28;20023;-63
2022/05/21 11:10:15;;;;;;;2.10;1.90;;;38.00;42.20;;;;;;5074111;28;20016;-62
2022/05/21 11:12:58;;;;;;;4.25;1.67;;;38.30;42.30;;;;;;5073489;28;20020;-62
2022/05/21 11:15:36;;;;;;;1.88;1.60;;;38.40;40.50;;;;;;5073768;28;20372;-63
2022/05/21 11:18:05;;;;;;;1.63;1.52;;;37.90;42.70;;;;;;5073640;28;20036;-63
2022/05/21 11:20:38;;;;;;;1.88;1.50;;;38.20;41.10;;;;;;5073927;28;20142;-63
2022/05/21 11:23:22;;;;;;;1.60;1.30;;;38.50;40.60;;;;;;5073419;28;20067;-62
2022/05/21 11:26:11;;;;;;;2.20;2.00;;;38.60;41.20;;;;;;5073749;28;20145;-63
2022/05/21 11:28:48;;;;;;;3.25;1.65;;;38.10;39.50;;;;;;5073790;28;20360;-63
2022/05/21 11:37:21;;;;;;;2.13;1.33;;;37.60;41.50;;;;;;5073766;28;20074;-62
2022/05/21 11:39:52;;;;;;;1.85;1.73;;;37.70;42.60;;;;;;5073517;28;20104;-62
2022/05/21 11:42:28;;;;;;;1.67;1.58;;;37.80;41.60;;;;;;5073261;28;20046;-62
2022/05/21 11:44:59;;;;;;;3.20;2.03;;;37.70;43.50;;;;;;5073479;28;20020;-63
2022/05/21 11:47:40;;;;;;;1.65;1.55;;;37.80;40.80;;;;;;5073311;28;20100;-62
2022/05/21 11:50:21;;;;;;;1.55;1.30;;;37.50;41.10;;;;;;5073249;28;20111;-62
2022/05/21 11:53:00;;;;;;;1.63;1.40;;;37.70;44.40;;;;;;5073161;28;20035;-62
2022/05/21 11:55:38;;;;;;;2.05;1.70;;;38.00;44.90;;;;;;5073057;28;20032;-63
2022/05/21 11:58:05;;;;;;;1.90;1.80;;;38.30;42.40;;;;;;5072815;28;20040;-63
2022/05/21 12:00:33;;;;;;;1.67;1.48;;;38.30;41.40;;;;;;5073140;28;20025;-63
2022/05/21 12:02:59;;;;;;;2.92;1.75;;;38.30;40.70;;;;;;5073174;28;20024;-62
2022/05/21 12:08:33;;;;;;;1.67;1.42;;;37.90;42.00;;;;;;5051252;28;20498;-62
2022/05/21 12:11:07;;;;;;;1.50;1.40;;;38.00;40.50;;;;;;5072996;28;20021;-63
2022/05/21 12:13:33;;;;;;;2.40;1.40;;;38.20;39.50;;;;;;5073069;28;20028;-62
2022/05/21 12:16:19;;;;;;;1.50;1.40;;;38.40;41.40;;;;;;5073208;28;20379;-62
2022/05/21 12:18:59;;;;;;;1.45;1.35;;;38.60;41.00;;;;;;5056226;28;20059;-62
2022/05/21 12:21:32;;;;;;;1.60;1.50;;;38.60;40.20;;;;;;5073106;28;20032;-62
2022/05/21 12:24:05;;;;;;;1.58;1.40;;;38.70;39.50;;;;;;5072632;28;20455;-63
2022/05/21 12:26:30;;;;;;;1.13;1.13;;;38.70;39.80;;;;;;5073129;28;20024;-63
2022/05/21 12:28:56;;;;;;;1.50;1.30;;;38.10;38.30;;;;;;5073044;28;20032;-63
2022/05/21 12:31:28;;;;;;;1.52;1.42;;;38.00;40.90;;;;;;5072924;28;20471;-63
2022/05/21 12:34:19;;;;;;;1.92;1.30;;;38.10;39.60;;;;;;5073267;28;20390;-63
2022/05/21 12:37:10;;;;;;;2.65;1.52;;;37.80;38.50;;;;;;5027837;28;20045;-63
2022/05/21 12:39:57;;;;;;;2.08;1.13;;;37.50;41.40;;;;;;5072874;28;20048;-63
2022/05/21 12:42:39;;;;;;;1.90;1.40;;;37.70;41.40;;;;;;5072807;28;20024;-62
2022/05/21 12:45:06;;;;;;;1.30;1.20;;;37.50;39.10;;;;;;5073047;28;20054;-63
2022/05/21 12:47:38;;;;;;;2.03;1.23;;;37.20;39.30;;;;;;5072600;28;20111;-63
2022/05/21 12:50:17;;;;;;;;;;;37.00;40.00;;;;;;5073256;28;20083;-63
2022/05/21 12:52:57;;;;;;;1.30;1.10;;;36.70;40.90;;;;;;5072649;28;20320;-63
2022/05/21 12:55:31;;;;;;;1.83;1.20;;;37.00;41.80;;;;;;5072683;28;20095;-62
2022/05/21 12:58:15;;;;;;;1.98;1.02;;;37.40;40.10;;;;;;5072622;28;20131;-62
2022/05/21 13:00:49;;;;;;;1.88;1.00;;;37.20;39.60;;;;;;5072690;28;20491;-63
2022/05/21 13:03:15;;;;;;;1.63;1.05;;;37.50;40.50;;;;;;5073993;28;20375;-62
2022/05/21 13:06:12;;;;;;;1.27;1.17;;;37.80;38.90;;;;;;5076217;28;20418;-63
2022/05/21 13:08:40;;;;;;;1.65;1.23;;;37.70;39.40;;;;;;5055458;28;20043;-63
2022/05/21 13:11:21;;;;;;;1.75;1.10;;;37.80;40.90;;;;;;5076099;28;20486;-63
2022/05/21 13:14:00;;;;;;;1.95;1.25;;;38.10;39.80;;;;;;5076046;28;20016;-63
2022/05/21 13:16:27;;;;;;;1.20;1.10;;;38.20;39.20;;;;;;5076001;28;20095;-63
2022/05/21 13:19:33;;;;;;;1.80;1.30;;;38.20;39.60;;;;;;5075892;28;20074;-63
2022/05/21 13:22:42;;;;;;;2.10;1.10;;;37.80;38.80;;;;;;5075774;28;20035;-63
2022/05/21 13:25:12;;;;;;;1.30;1.20;;;37.80;39.70;;;;;;5075873;28;20021;-63
2022/05/21 13:27:51;;;;;;;1.30;1.13;;;38.10;40.00;;;;;;5075833;28;20028;-63
2022/05/21 13:30:21;;;;;;;1.27;1.15;;;38.20;39.80;;;;;;5075833;28;20024;-63
2022/05/21 13:32:59;;;;;;;3.22;1.35;;;38.20;38.70;;;;;;5075925;28;20033;-62
2022/05/21 13:35:35;;;;;;;3.22;1.10;;;38.10;37.10;;;;;;5075499;28;20033;-63
2022/05/21 13:38:03;;;;;;;2.00;1.05;;;37.90;37.90;;;;;;5075276;28;20028;-63
2022/05/21 13:40:32;;;;;;;1.48;1.10;;;37.60;39.70;;;;;;5075620;28;20475;-62
2022/05/21 13:43:07;;;;;;;1.30;1.20;;;37.80;38.80;;;;;;5075579;28;20031;-63
2022/05/21 13:45:35;;;;;;;1.15;0.95;;;38.00;39.70;;;;;;5075538;28;20497;-63
2022/05/21 13:48:15;;;;;;;1.90;1.20;;;37.90;38.90;;;;;;5075665;28;20020;-63
2022/05/21 13:50:43;;;;;;;1.25;1.15;;;37.30;38.30;;;;;;5075625;28;20430;-63